Orumieh, Iran

7:40 PM IRDT on August 22, 2014 (GMT +0430)
Uromiyeh | Change Station
CLOSE
Current Station
Airport
Location: Orumieh,
Elevation: 4341 ft
Nearby Weather Stations

Elev 4341 ft 37.67 °N, 45.07 °E | Updated 10 minutes ago

Scattered Clouds
Scattered Clouds
82 °F
Feels Like 82 °F
N
5
Wind Variable Wind from SSE

Today
High -- | Low -- °F
--% Chance of Precip.
Yesterday
High -- | Low -- °F
Precip. -- in
6:51 AM 8:13 PM
Waning Crescent, 8% visible
Pressure 29.92 in
Visibility 6.2 miles
Clouds Few 3500 ft
Scattered Clouds 4000 ft
Heat Index 82 °F
Dew Point 55 °F
Humidity 39%
Rainfall 0.00 in
Snow Depth Not available.
UV 0 out of 12
Pollen Not available.
Air Quality Not available.
Flu Activity Not available.
METAR OITR 221500Z 16004KT 9999 FEW035CB SCT040 28/13 Q1013 TEMPO TSRA

More Conditions Fewer Conditions

Pressure 29.92 in
Visibility 6.2 miles
Clouds Few 3500 ft
Scattered Clouds 4000 ft
Heat Index 82 °F
Dew Point 55 °F
Humidity 39%
Rainfall 0.00 in
Snow Depth Not available.
UV 0 out of 12
Pollen Not available.
Air Quality Not available.
Flu Activity Not available.
METAR OITR 221500Z 16004KT 9999 FEW035CB SCT040 28/13 Q1013 TEMPO TSRA

More Conditions Fewer Conditions

10-Day Weather Forecast

Almanac

Astronomy

Aug. 22, 2014 Rise Set
Actual Time 6:51 AM IRDT 8:13 PM IRDT
Civil Twilight 6:23 AM IRDT 8:41 PM IRDT
Nautical Twilight 5:50 AM IRDT 9:13 PM IRDT
Astronomical Twilight 5:16 AM IRDT 9:48 PM IRDT
Moon 3:55 AM IRDT 6:06 PM IRDT
Length of Visible Light 14h 17m
Length of Day
13h 22m
Tomorrow will be 2m 14s shorter.
Waning Crescent, 8% of the Moon is Illuminated
Today
Waning Crescent
Aug 25
New
Sep 2
First Quarter
Sep 8
Full
Sep 15
Last Quarter

Today's Extremes

Country Highs Country Lows

Community

WunderPhotos

Upload Photos

1,746,187 photos uploaded!

WunderBlogs® & News

Nearby

Snow Depth

Not available.

Earthquake Activity

City Distance Mag. Time & Date
No recent earthquake activity has been reported nearby.
Minimum magnitude displayed is 2.5.

Coastal Water Temperatures

Place Temperature
No Stations Reporting

Nearby Weather Stations